Ital Oriente — A8LN2 — position and weather

sailwx.info

Track history (hours):
 
Tides and Currents Weather Stations Pressure Air Temp Water Temp Dewpoint Dewpoint Depression Visibility Wind Speed Wind Dir Waves Ship Positions

Ital Oriente

Last reported at 2014-Aug-27 11:12 UTC. Time now 2014-Aug-29 05:32 UTC.
Position N 39°43' E 023°50'.

Length 222 m; draft 8.2 m.

Type: Cargo ship. MMSI: 636091278.

Date/timePositionNaut miles runAvg speedWind from/ knotsBaromVisibWave heightAir tempDewpointWater temp
2014-Aug-27 11:12N 39°43' E 023°50'811.6
2014-Aug-27 10:31N 39°39' E 023°59'58 9.7
2014-Aug-27 04:33N 39°14' E 025°07'1211.7
2014-Aug-27 03:33N 39°09' E 025°21'1111.4
2014-Aug-27 02:33N 39°04' E 025°34'1111.4
2014-Aug-27 01:33N 38°59' E 025°47'175 4.0
2014-Aug-25 05:33N 40°25' E 029°05'0 0.2
2014-Aug-25 04:16N 40°25' E 029°05'0 0.0
2014-Aug-25 00:28N 40°25' E 029°05'0 0.0
2014-Aug-24 23:28N 40°25' E 029°05'0 0.0
2014-Aug-24 22:28N 40°25' E 029°05'0 0.0
2014-Aug-24 21:16N 40°25' E 029°05'1 1.2
2014-Aug-24 20:30N 40°26' E 029°05'16 1.5
2014-Aug-24 09:27N 40°31' E 028°45'1010.7
2014-Aug-24 08:33N 40°38' E 028°54'1111.3
2014-Aug-24 07:33N 40°42' E 029°08'1211.6
2014-Aug-24 06:33N 40°45' E 029°23'7 1.2
2014-Aug-24 00:15N 40°46' E 029°32'3 4.3
2014-Aug-23 23:33N 40°45' E 029°29'1211.6
2014-Aug-23 22:33N 40°46' E 029°13'1413.9
2014-Aug-23 21:33N 40°52' E 028°57'8 6.6
2014-Aug-23 20:17N 41°00' E 029°01'0 0.0
2014-Aug-23 19:23N 41°00' E 029°01'1 0.0
2014-Aug-22 21:25N 40°59' E 028°60'7 7.7
2014-Aug-22 20:31N 40°53' E 028°56'1010.2
2014-Aug-22 19:31N 40°50' E 028°43'8 0.9
2014-Aug-22 11:32N 40°58' E 028°40'0 0.0
2014-Aug-22 10:14N 40°58' E 028°40'0 0.0
2014-Aug-22 09:32N 40°58' E 028°40'1 0.4
2014-Aug-22 07:31N 40°57' E 028°41'2 0.4
2014-Aug-22 02:15N 40°56' E 028°38'0 0.1
2014-Aug-22 00:15N 40°56' E 028°38'2 0.5
2014-Aug-21 19:23N 40°54' E 028°36'8712.0
2014-Aug-21 12:08N 40°26' E 026°47'710.5
2014-Aug-21 11:27N 40°22' E 026°40'2613.0
2014-Aug-21 09:28N 40°02' E 026°17'8 9.2
2014-Aug-21 08:33N 39°60' E 026°06'1110.9
2014-Aug-21 07:32N 39°54' E 025°54'1111.2
2014-Aug-21 06:33N 39°45' E 025°46'1111.1
2014-Aug-21 05:33N 39°35' E 025°39'7 6.9
2014-Aug-21 04:29N 39°28' E 025°41'28 9.0
2014-Aug-21 01:23N 39°05' E 025°22'1111.5
2014-Aug-21 00:24N 38°54' E 025°16'1011.5
2014-Aug-20 23:32N 38°46' E 025°09'2311.6
2014-Aug-20 21:32N 38°24' E 024°59'4310.1
2014-Aug-20 17:17N 37°42' E 025°15'7 1.3
2014-Aug-20 12:15N 37°48' E 025°10'19 1.6
2014-Aug-20 00:21N 38°06' E 025°03'1 0.8
2014-Aug-19 23:33N 38°07' E 025°02'56 7.8
2014-Aug-19 16:24N 37°35' E 024°04'1011.4
2014-Aug-19 15:31N 37°35' E 023°52'1212.5
2014-Aug-19 14:34N 37°43' E 023°40'1312.7
2014-Aug-19 13:34N 37°55' E 023°37'2 2.2
2014-Aug-19 12:27N 37°57' E 023°35'0 0.0
2014-Aug-19 11:33N 37°57' E 023°35'0 0.0
2014-Aug-19 10:27N 37°57' E 023°35'0 0.0
2014-Aug-19 09:33N 37°57' E 023°35'0 0.0
2014-Aug-19 08:27N 37°57' E 023°35'0 0.0
2014-Aug-19 07:33N 37°57' E 023°35'0 0.0
2014-Aug-19 06:33N 37°57' E 023°35'0 0.0
2014-Aug-19 05:33N 37°57' E 023°35'0 0.0
2014-Aug-19 04:33N 37°57' E 023°35'0 0.0
2014-Aug-19 03:33N 37°57' E 023°35'0 0.0
2014-Aug-19 02:33N 37°57' E 023°35'0 0.0
2014-Aug-19 01:33N 37°57' E 023°35'0 0.0
2014-Aug-19 00:27N 37°57' E 023°35'0 0.0
2014-Aug-18 23:27N 37°57' E 023°35'0 0.0
2014-Aug-18 22:33N 37°57' E 023°35'0 0.0
2014-Aug-18 21:33N 37°57' E 023°35'2 1.7
2014-Aug-18 20:33N 37°56' E 023°35'6 5.4
2014-Aug-18 19:32N 37°51' E 023°30'0 0.1
2014-Aug-18 18:32N 37°51' E 023°30'0 0.0
2014-Aug-18 17:32N 37°51' E 023°30'0 0.0
2014-Aug-18 16:32N 37°51' E 023°30'0 0.0
2014-Aug-18 15:32N 37°51' E 023°30'0 0.0
2014-Aug-18 14:32N 37°51' E 023°30'0 0.0
2014-Aug-18 13:32N 37°51' E 023°30'0 0.0
2014-Aug-18 12:32N 37°51' E 023°30'0 0.0
2014-Aug-18 11:32N 37°51' E 023°30'0 0.1
2014-Aug-18 10:34N 37°51' E 023°30'9 8.7
2014-Aug-18 09:34N 37°49' E 023°41'1817.4
2014-Aug-18 08:32N 37°32' E 023°48'  
Track history (hours):
 
Tides and Currents Weather Stations Pressure Air Temp Water Temp Dewpoint Dewpoint Depression Visibility Wind Speed Wind Dir Waves Ship Positions

Ital Oriente

Last reported at 2014-Aug-27 11:12 UTC. Time now 2014-Aug-29 05:32 UTC.
Position N 39°43' E 023°50'.

Length 222 m; draft 8.2 m.

Type: Cargo ship. MMSI: 636091278.

Date/timePositionNaut miles runAvg speedWind from/ knotsBaromVisibWave heightAir tempDewpointWater temp
2014-Aug-27 11:12N 39°43' E 023°50'811.6
2014-Aug-27 10:31N 39°39' E 023°59'58 9.7
2014-Aug-27 04:33N 39°14' E 025°07'1211.7
2014-Aug-27 03:33N 39°09' E 025°21'1111.4
2014-Aug-27 02:33N 39°04' E 025°34'1111.4
2014-Aug-27 01:33N 38°59' E 025°47'175 4.0
2014-Aug-25 05:33N 40°25' E 029°05'0 0.2
2014-Aug-25 04:16N 40°25' E 029°05'0 0.0
2014-Aug-25 00:28N 40°25' E 029°05'0 0.0
2014-Aug-24 23:28N 40°25' E 029°05'0 0.0
2014-Aug-24 22:28N 40°25' E 029°05'0 0.0
2014-Aug-24 21:16N 40°25' E 029°05'1 1.2
2014-Aug-24 20:30N 40°26' E 029°05'16 1.5
2014-Aug-24 09:27N 40°31' E 028°45'1010.7
2014-Aug-24 08:33N 40°38' E 028°54'1111.3
2014-Aug-24 07:33N 40°42' E 029°08'1211.6
2014-Aug-24 06:33N 40°45' E 029°23'7 1.2
2014-Aug-24 00:15N 40°46' E 029°32'3 4.3
2014-Aug-23 23:33N 40°45' E 029°29'1211.6
2014-Aug-23 22:33N 40°46' E 029°13'1413.9
2014-Aug-23 21:33N 40°52' E 028°57'8 6.6
2014-Aug-23 20:17N 41°00' E 029°01'0 0.0
2014-Aug-23 19:23N 41°00' E 029°01'1 0.0
2014-Aug-22 21:25N 40°59' E 028°60'7 7.7
2014-Aug-22 20:31N 40°53' E 028°56'1010.2
2014-Aug-22 19:31N 40°50' E 028°43'8 0.9
2014-Aug-22 11:32N 40°58' E 028°40'0 0.0
2014-Aug-22 10:14N 40°58' E 028°40'0 0.0
2014-Aug-22 09:32N 40°58' E 028°40'1 0.4
2014-Aug-22 07:31N 40°57' E 028°41'2 0.4
2014-Aug-22 02:15N 40°56' E 028°38'0 0.1
2014-Aug-22 00:15N 40°56' E 028°38'2 0.5
2014-Aug-21 19:23N 40°54' E 028°36'8712.0
2014-Aug-21 12:08N 40°26' E 026°47'710.5
2014-Aug-21 11:27N 40°22' E 026°40'2613.0
2014-Aug-21 09:28N 40°02' E 026°17'8 9.2
2014-Aug-21 08:33N 39°60' E 026°06'1110.9
2014-Aug-21 07:32N 39°54' E 025°54'1111.2
2014-Aug-21 06:33N 39°45' E 025°46'1111.1
2014-Aug-21 05:33N 39°35' E 025°39'7 6.9
2014-Aug-21 04:29N 39°28' E 025°41'28 9.0
2014-Aug-21 01:23N 39°05' E 025°22'1111.5
2014-Aug-21 00:24N 38°54' E 025°16'1011.5
2014-Aug-20 23:32N 38°46' E 025°09'2311.6
2014-Aug-20 21:32N 38°24' E 024°59'4310.1
2014-Aug-20 17:17N 37°42' E 025°15'7 1.3
2014-Aug-20 12:15N 37°48' E 025°10'19 1.6
2014-Aug-20 00:21N 38°06' E 025°03'1 0.8
2014-Aug-19 23:33N 38°07' E 025°02'56 7.8
2014-Aug-19 16:24N 37°35' E 024°04'1011.4
2014-Aug-19 15:31N 37°35' E 023°52'1212.5
2014-Aug-19 14:34N 37°43' E 023°40'1312.7
2014-Aug-19 13:34N 37°55' E 023°37'2 2.2
2014-Aug-19 12:27N 37°57' E 023°35'0 0.0
2014-Aug-19 11:33N 37°57' E 023°35'0 0.0
2014-Aug-19 10:27N 37°57' E 023°35'0 0.0
2014-Aug-19 09:33N 37°57' E 023°35'0 0.0
2014-Aug-19 08:27N 37°57' E 023°35'0 0.0
2014-Aug-19 07:33N 37°57' E 023°35'0 0.0
2014-Aug-19 06:33N 37°57' E 023°35'0 0.0
2014-Aug-19 05:33N 37°57' E 023°35'0 0.0
2014-Aug-19 04:33N 37°57' E 023°35'0 0.0
2014-Aug-19 03:33N 37°57' E 023°35'0 0.0
2014-Aug-19 02:33N 37°57' E 023°35'0 0.0
2014-Aug-19 01:33N 37°57' E 023°35'0 0.0
2014-Aug-19 00:27N 37°57' E 023°35'0 0.0
2014-Aug-18 23:27N 37°57' E 023°35'0 0.0
2014-Aug-18 22:33N 37°57' E 023°35'0 0.0
2014-Aug-18 21:33N 37°57' E 023°35'2 1.7
2014-Aug-18 20:33N 37°56' E 023°35'6 5.4
2014-Aug-18 19:32N 37°51' E 023°30'0 0.1
2014-Aug-18 18:32N 37°51' E 023°30'0 0.0
2014-Aug-18 17:32N 37°51' E 023°30'0 0.0
2014-Aug-18 16:32N 37°51' E 023°30'0 0.0
2014-Aug-18 15:32N 37°51' E 023°30'0 0.0
2014-Aug-18 14:32N 37°51' E 023°30'0 0.0
2014-Aug-18 13:32N 37°51' E 023°30'0 0.0
2014-Aug-18 12:32N 37°51' E 023°30'0 0.0
2014-Aug-18 11:32N 37°51' E 023°30'0 0.1
2014-Aug-18 10:34N 37°51' E 023°30'9 8.7
2014-Aug-18 09:34N 37°49' E 023°41'1817.4
2014-Aug-18 08:32N 37°32' E 023°48'  

Dump ship's entire track history